Glacier National Park, MT

6:14 PM MDT on August 29, 2014 (GMT -0600)
Cut Bank Municipal | Change Station
CLOSE
Current Station
Airport
Location: Cut Bank,
Elevation: 3855 ft
Nearby Weather Stations

Elev 3855 ft 48.61 °N, 112.38 °W | Updated 18 minutes ago

Partly Cloudy
Partly Cloudy
78 °F
Feels Like 78 °F
N
14
Wind Variable Wind from SSW
Gusts 18 mph

Today
High -- | Low -- °F
--% Chance of Precip.
Yesterday
High -- | Low -- °F
Precip. -- in
6:47 AM 8:21 PM
Waxing Crescent, 17% visible
Pressure 29.77 in
Visibility 10.0 miles
Clouds Few 9500 ft
Dew Point 44 °F
Humidity 30%
Rainfall 0.00 in
Snow Depth Not available.
UV 2 out of 12
Pollen 3.50 out of 12
Air Quality Not available.
Flu Activity Not available.
METAR KCTB 292356Z AUTO 20012G16KT 10SM FEW095 26/07 A2984 RMK AO2 SLP080 T02560067 10261 20183 56020

More Conditions Fewer Conditions

Pressure 29.77 in
Visibility 10.0 miles
Clouds Few 9500 ft
Dew Point 44 °F
Humidity 30%
Rainfall 0.00 in
Snow Depth Not available.
UV 2 out of 12
Pollen 3.50 out of 12
Air Quality Not available.
Flu Activity Not available.
METAR KCTB 292356Z AUTO 20012G16KT 10SM FEW095 26/07 A2984 RMK AO2 SLP080 T02560067 10261 20183 56020

More Conditions Fewer Conditions

10-Day Weather Forecast

Almanac

Astronomy

Aug. 29, 2014 Rise Set
Actual Time 6:47 AM MDT 8:21 PM MDT
Civil Twilight 6:14 AM MDT 8:54 PM MDT
Nautical Twilight 5:33 AM MDT 9:34 PM MDT
Astronomical Twilight 4:49 AM MDT 10:18 PM MDT
Moon 11:02 AM MDT (8/29) 9:57 PM MDT (8/29)
Length of Visible Light 14h 40m
Length of Day
13h 34m
Tomorrow will be 3m 25s shorter.
Waxing Crescent, 17% of the Moon is Illuminated
Today
Waxing Crescent
Sep 2
First Quarter
Sep 8
Full
Sep 15
Last Quarter
Sep 24
New

Today's Extremes

State Highs State Lows

Community

WunderPhotos

Upload Photos

1,748,382 photos uploaded!

Nearby

Snow Depth

Station Depth Elevation
Emery Creek 0 in 4350 ft
Badger Pass 0 in 6900 ft
Dupuyer Creek 0 in 5750 ft
Stahl Peak 0 in 6030 ft
Waldron 0 in 5600 ft

Earthquake Activity

City Distance Mag. Time & Date
No recent earthquake activity has been reported nearby.
Minimum magnitude displayed is 2.5.

Coastal Water Temperatures

Place Temperature
No Stations Reporting

Nearby Weather Stations